Time;durP1;ratioP1;P1;durP2;ratioP2;P2;SDS_P1;SDS_P2;PMS_P1;PMS_P2;Temp;Humidity;BMP_temperature;BMP_pressure;BME280_temperature;BME280_humidity;BME280_pressure;Samples;Min_cycle;Max_cycle;Signal;HPM_P1;HPM_P2
2022/06/10 00:00:54;;;;;;;12.60;11.70;;;;;;;20.45;61.18;100153.63;5012939;28;96881;-81
2022/06/10 00:03:23;;;;;;;12.68;11.48;;;;;;;20.39;61.35;100149.63;4984426;28;97274;-84
2022/06/10 00:05:49;;;;;;;12.90;11.90;;;;;;;20.44;61.14;100155.44;4999501;28;101651;-81
2022/06/10 00:08:19;;;;;;;12.18;11.20;;;;;;;20.45;61.40;100167.81;5018617;28;97415;-81
2022/06/10 00:10:49;;;;;;;12.23;11.43;;;;;;;20.53;61.03;100152.09;5005885;28;99603;-83
2022/06/10 00:13:16;;;;;;;13.53;12.43;;;;;;;20.47;61.16;100157.03;5019711;28;97262;-81
2022/06/10 00:15:42;;;;;;;12.52;11.45;;;;;;;20.45;61.32;100166.94;5016790;28;101093;-81
2022/06/10 00:18:08;;;;;;;12.82;11.93;;;;;;;20.39;61.43;100154.97;4996815;28;101303;-82
2022/06/10 00:20:34;;;;;;;12.95;11.85;;;;;;;20.47;61.41;100171.19;5003840;28;96741;-82
2022/06/10 00:22:59;;;;;;;13.40;12.20;;;;;;;20.41;61.56;100161.00;4998922;28;97012;-81
2022/06/10 00:25:26;;;;;;;12.85;12.05;;;;;;;20.41;61.69;100165.50;5012769;28;97871;-82
2022/06/10 00:27:51;;;;;;;12.57;11.63;;;;;;;20.31;61.74;100160.03;4999516;28;101384;-81
2022/06/10 00:30:19;;;;;;;13.27;12.07;;;;;;;20.32;61.85;100165.25;5018191;28;97001;-81
2022/06/10 00:32:45;;;;;;;12.90;12.00;;;;;;;20.33;61.97;100174.06;5014573;28;97294;-81
2022/06/10 00:35:11;;;;;;;12.73;11.63;;;;;;;20.32;62.18;100170.56;5009192;28;101784;-81
2022/06/10 00:37:37;;;;;;;13.95;12.65;;;;;;;20.31;62.24;100181.38;4996524;28;101201;-81
2022/06/10 00:40:04;;;;;;;12.75;11.85;;;;;;;20.31;62.10;100171.53;5000865;28;97170;-82
2022/06/10 00:42:30;;;;;;;12.48;11.55;;;;;;;20.22;62.28;100174.06;5012006;28;97290;-81
2022/06/10 00:44:55;;;;;;;12.82;11.70;;;;;;;20.27;62.11;100180.72;5016473;28;100769;-81
2022/06/10 00:47:47;;;;;;;13.23;12.15;;;;;;;20.31;62.15;100187.53;4996429;28;101348;-81
2022/06/10 00:50:24;;;;;;;12.85;12.05;;;;;;;20.25;62.21;100192.50;5021170;28;96900;-81
2022/06/10 00:52:59;;;;;;;13.57;12.57;;;;;;;20.09;62.08;100168.81;5007323;28;96745;-81
2022/06/10 00:55:29;;;;;;;13.50;12.65;;;;;;;20.22;62.31;100190.06;5022583;28;98029;-82
2022/06/10 00:58:01;;;;;;;13.07;12.18;;;;;;;20.08;62.36;100181.28;5009104;28;97968;-81
2022/06/10 01:00:28;;;;;;;13.07;12.20;;;;;;;20.15;62.57;100196.81;5031638;28;96707;-81
2022/06/10 01:02:54;;;;;;;13.85;12.75;;;;;;;20.20;62.46;100199.97;5032913;28;97736;-81
2022/06/10 01:05:24;;;;;;;13.40;12.35;;;;;;;20.07;62.28;100189.38;5015978;28;101355;-81
2022/06/10 01:07:55;;;;;;;13.40;12.18;;;;;;;20.14;62.58;100206.63;4995639;28;101906;-81
2022/06/10 01:10:21;;;;;;;12.85;11.75;;;;;;;20.06;62.73;100209.00;5005033;28;97138;-81
2022/06/10 01:13:09;;;;;;;12.68;11.43;;;;;;;20.09;62.76;100216.78;5003521;28;97179;-81
2022/06/10 01:16:10;;;;;;;12.85;11.90;;;;;;;20.11;62.74;100220.19;5024724;28;97616;-81
2022/06/10 01:18:59;;;;;;;13.02;11.95;;;;;;;20.06;62.88;100212.53;4987116;28;101467;-81
2022/06/10 01:22:06;;;;;;;13.40;12.25;;;;;;;20.07;62.88;100219.56;5010066;28;96956;-84
2022/06/10 01:24:40;;;;;;;13.32;12.13;;;;;;;20.01;62.79;100225.38;5027836;28;97237;-81
2022/06/10 01:30:39;;;;;;;14.07;12.90;;;;;;;19.99;62.82;100235.28;5026191;28;97820;-81
2022/06/10 01:33:16;;;;;;;13.77;12.65;;;;;;;19.99;62.70;100224.63;5020822;28;96721;-81
2022/06/10 01:36:03;;;;;;;14.05;13.15;;;;;;;20.05;62.90;100233.97;5005836;28;97233;-81
2022/06/10 01:38:35;;;;;;;13.93;13.00;;;;;;;20.02;62.77;100243.03;5020712;28;98524;-81
2022/06/10 01:41:16;;;;;;;14.63;13.23;;;;;;;19.88;62.94;100216.56;4999984;28;98513;-80
2022/06/10 01:44:09;;;;;;;13.35;12.25;;;;;;;19.93;63.30;100240.22;5048724;27;98103;-81
2022/06/10 01:46:37;;;;;;;17.75;13.48;;;;;;;19.88;63.58;100240.56;5003701;28;97629;-81
2022/06/10 01:49:06;;;;;;;14.40;13.10;;;;;;;19.90;63.26;100242.13;5002336;28;98052;-81
2022/06/10 01:51:53;;;;;;;13.00;12.00;;;;;;;19.94;63.38;100249.91;5008687;28;100176;-84
2022/06/10 01:54:37;;;;;;;13.98;12.88;;;;;;;19.88;63.35;100253.88;5006157;28;97107;-81
2022/06/10 01:57:15;;;;;;;13.20;12.40;;;;;;;19.86;63.46;100261.94;5029418;28;96795;-83
2022/06/10 01:59:46;;;;;;;14.00;12.85;;;;;;;19.80;63.67;100251.75;5015632;28;101212;-81
2022/06/10 02:02:22;;;;;;;13.85;12.85;;;;;;;19.77;63.69;100265.31;5014545;28;98322;-81
2022/06/10 02:04:55;;;;;;;13.82;12.88;;;;;;;19.85;63.70;100265.59;5016937;28;96779;-81
2022/06/10 02:07:25;;;;;;;13.85;12.52;;;;;;;19.86;64.11;100272.59;5013084;28;96884;-81
2022/06/10 02:09:53;;;;;;;14.15;12.73;;;;;;;19.79;63.91;100274.03;4995742;28;102191;-81
2022/06/10 02:12:41;;;;;;;13.52;12.50;;;;;;;19.76;64.00;100268.94;5020826;28;97064;-81
2022/06/10 02:15:52;;;;;;;14.07;12.98;;;;;;;19.67;64.05;100253.63;5016893;28;96850;-81
2022/06/10 02:18:30;;;;;;;13.67;12.77;;;;;;;19.73;63.92;100270.97;4951122;28;96996;-81
2022/06/10 02:21:02;;;;;;;14.65;13.48;;;;;;;19.73;64.14;100281.63;4966410;28;101480;-81
2022/06/10 02:23:31;;;;;;;14.27;13.27;;;;;;;19.68;64.25;100274.81;4966124;28;101568;-83
2022/06/10 02:25:58;;;;;;;13.80;12.73;;;;;;;19.61;64.46;100276.19;4958609;28;97226;-81
2022/06/10 02:28:36;;;;;;;13.35;12.45;;;;;;;19.67;64.31;100283.78;4992218;28;96994;-82
2022/06/10 02:31:04;;;;;;;13.25;12.25;;;;;;;19.70;64.61;100292.50;4958852;28;97984;-83
2022/06/10 02:33:30;;;;;;;13.18;12.07;;;;;;;19.76;64.30;100294.72;4946111;28;101386;-80
2022/06/10 02:36:00;;;;;;;13.70;12.60;;;;;;;19.65;64.38;100296.34;4965386;28;97578;-81
2022/06/10 02:38:35;;;;;;;12.35;11.45;;;;;;;19.65;64.41;100304.31;4972946;28;97480;-86
2022/06/10 02:41:14;;;;;;;15.40;12.95;;;;;;;19.65;64.36;100304.31;4967357;28;101366;-81
2022/06/10 02:44:03;;;;;;;14.27;12.68;;;;;;;19.64;64.49;100310.59;4969027;28;101829;-81
2022/06/10 02:46:47;;;;;;;13.32;12.18;;;;;;;19.65;64.35;100306.97;4957814;28;97396;-82
2022/06/10 02:49:15;;;;;;;13.48;12.57;;;;;;;19.63;64.59;100310.69;5006844;28;96908;-81
2022/06/10 02:51:41;;;;;;;13.80;12.80;;;;;;;19.62;64.53;100307.19;5014090;28;100948;-81
2022/06/10 02:54:15;;;;;;;14.60;13.40;;;;;;;19.69;64.32;100318.25;5015486;28;101302;-83
2022/06/10 02:56:41;;;;;;;15.20;13.95;;;;;;;19.61;64.40;100317.94;4995505;28;97013;-81
2022/06/10 03:02:10;;;;;;;14.82;13.32;;;;;;;19.62;64.38;100325.81;5032339;28;98625;-81
2022/06/10 03:04:59;;;;;;;15.68;14.35;;;;;;;19.57;64.60;100337.75;5016022;28;101137;-81
2022/06/10 03:07:48;;;;;;;14.77;13.55;;;;;;;19.57;64.44;100333.28;5010529;28;96806;-82
2022/06/10 03:10:23;;;;;;;15.13;13.60;;;;;;;19.48;64.55;100331.28;5007267;28;96858;-82
2022/06/10 03:13:09;;;;;;;16.20;14.60;;;;;;;19.64;64.39;100347.88;5026213;28;101522;-81
2022/06/10 03:15:55;;;;;;;15.55;14.32;;;;;;;19.64;64.54;100355.84;5001586;28;100679;-81
2022/06/10 03:18:30;;;;;;;15.02;13.93;;;;;;;19.59;64.76;100351.81;5027916;28;97326;-81
2022/06/10 03:21:24;;;;;;;14.80;13.70;;;;;;;19.66;64.44;100363.75;5019500;28;96797;-81
2022/06/10 03:24:03;;;;;;;14.32;13.18;;;;;;;19.65;64.61;100365.56;5010351;28;101446;-81
2022/06/10 03:26:52;;;;;;;14.95;13.75;;;;;;;19.53;64.50;100349.59;5003611;28;97417;-86
2022/06/10 03:29:27;;;;;;;15.25;13.88;;;;;;;19.67;64.38;100374.31;5007894;28;96995;-81
2022/06/10 03:32:09;;;;;;;14.50;13.50;;;;;;;19.70;64.45;100391.03;5000991;28;96809;-81
2022/06/10 03:34:38;;;;;;;14.98;13.70;;;;;;;19.67;64.34;100390.28;4997502;28;101520;-81
2022/06/10 03:37:04;;;;;;;14.48;13.38;;;;;;;19.75;64.13;100389.75;5008610;28;101080;-81
2022/06/10 03:39:30;;;;;;;14.77;13.40;;;;;;;19.76;64.13;100396.78;5009967;28;96705;-84
2022/06/10 03:42:11;;;;;;;14.65;13.50;;;;;;;19.81;64.10;100391.97;5000143;28;97123;-81
2022/06/10 03:44:38;;;;;;;15.40;14.20;;;;;;;19.82;63.91;100404.31;5001182;28;101422;-81
2022/06/10 03:47:06;;;;;;;15.77;14.38;;;;;;;19.81;64.05;100409.75;5001893;28;101769;-81
2022/06/10 03:49:41;;;;;;;14.45;13.38;;;;;;;19.86;63.95;100413.78;5013641;28;97192;-82
2022/06/10 03:52:08;;;;;;;14.35;13.35;;;;;;;19.64;63.85;100376.31;4998534;28;96826;-83
2022/06/10 03:54:34;;;;;;;15.35;14.00;;;;;;;19.85;63.80;100413.91;5001498;28;100810;-81
2022/06/10 03:56:59;;;;;;;14.65;13.48;;;;;;;19.90;63.78;100425.94;5008017;28;101293;-81
2022/06/10 03:59:25;;;;;;;14.13;13.00;;;;;;;19.90;63.91;100423.28;5030459;28;97316;-82
2022/06/10 04:01:50;;;;;;;14.00;13.00;;;;;;;19.90;63.46;100430.41;5018582;28;97267;-81
2022/06/10 04:04:16;;;;;;;14.48;13.45;;;;;;;19.93;63.71;100440.00;5016890;28;101115;-81
2022/06/10 04:06:41;;;;;;;14.57;13.43;;;;;;;19.83;63.87;100431.78;5000723;28;102292;-81
2022/06/10 04:09:07;;;;;;;15.23;14.20;;;;;;;19.88;63.92;100437.66;5013064;28;97484;-82
2022/06/10 04:11:33;;;;;;;14.68;13.57;;;;;;;19.87;63.66;100438.63;5010795;28;97433;-83
2022/06/10 04:13:58;;;;;;;15.10;14.02;;;;;;;19.87;63.72;100441.28;4994674;27;101136;-81
2022/06/10 04:16:26;;;;;;;15.15;13.93;;;;;;;19.76;63.55;100419.88;5005876;28;101075;-81
2022/06/10 04:18:52;;;;;;;15.25;14.15;;;;;;;19.96;63.57;100448.63;5001101;28;96947;-81
2022/06/10 04:21:17;;;;;;;15.82;14.55;;;;;;;19.96;63.09;100450.44;5014501;28;97044;-81
2022/06/10 04:23:43;;;;;;;15.52;14.32;;;;;;;19.90;63.21;100447.25;5013662;28;97668;-81
2022/06/10 04:26:08;;;;;;;14.77;13.38;;;;;;;19.99;63.37;100456.41;5015818;28;97691;-80
2022/06/10 04:28:34;;;;;;;14.90;13.48;;;;;;;19.97;63.13;100455.66;5015056;28;96854;-82
2022/06/10 04:30:59;;;;;;;14.82;13.82;;;;;;;19.98;62.90;100453.81;4989572;28;96988;-81
2022/06/10 04:33:25;;;;;;;16.15;14.70;;;;;;;19.96;63.17;100455.78;5022188;28;97559;-82
2022/06/10 04:35:51;;;;;;;15.88;14.68;;;;;;;20.02;62.81;100461.50;5026586;28;97498;-81
2022/06/10 04:38:19;;;;;;;15.20;13.93;;;;;;;20.09;62.64;100462.75;5004131;28;97284;-81
2022/06/10 04:40:45;;;;;;;15.98;14.60;;;;;;;20.03;63.00;100459.69;5023781;28;97057;-81
2022/06/10 04:43:10;;;;;;;14.75;13.73;;;;;;;20.05;62.88;100477.28;5019613;28;101018;-82
2022/06/10 04:45:40;;;;;;;14.63;13.55;;;;;;;20.07;62.64;100472.69;5009907;28;97852;-82
2022/06/10 04:48:06;;;;;;;15.10;14.07;;;;;;;20.14;62.52;100478.44;5007836;28;96985;-82
2022/06/10 04:50:31;;;;;;;14.82;13.73;;;;;;;20.16;62.17;100487.19;5015736;28;99113;-85
2022/06/10 04:52:57;;;;;;;16.27;14.30;;;;;;;20.20;62.02;100472.66;5026398;28;101024;-80
2022/06/10 04:55:25;;;;;;;14.43;13.43;;;;;;;20.31;61.89;100477.22;5012140;28;98345;-82
2022/06/10 04:57:51;;;;;;;15.32;14.07;;;;;;;20.26;61.72;100468.69;5022532;28;96775;-81
2022/06/10 05:00:21;;;;;;;14.45;13.27;;;;;;;20.28;61.28;100464.97;5004610;28;97410;-83
2022/06/10 05:02:46;;;;;;;15.30;14.05;;;;;;;20.30;61.35;100483.50;5024336;28;97390;-82
2022/06/10 05:05:12;;;;;;;16.85;15.40;;;;;;;20.41;61.15;100502.25;5008827;28;99992;-81
2022/06/10 05:07:38;;;;;;;15.93;14.35;;;;;;;20.51;60.66;100502.44;5009485;28;97372;-82
2022/06/10 05:10:05;;;;;;;14.55;13.63;;;;;;;20.41;60.33;100482.72;4998026;28;98380;-83
2022/06/10 05:12:30;;;;;;;14.20;13.20;;;;;;;20.61;60.20;100510.66;5010880;28;98040;-83
2022/06/10 05:14:56;;;;;;;13.88;13.02;;;;;;;20.56;59.99;100481.63;5011596;28;101846;-82
2022/06/10 05:17:21;;;;;;;14.70;13.52;;;;;;;20.66;60.14;100500.50;5009893;28;97142;-83
2022/06/10 05:19:47;;;;;;;14.48;13.32;;;;;;;20.86;59.59;100502.56;5024400;28;97704;-86
2022/06/10 05:22:16;;;;;;;14.98;13.75;;;;;;;20.91;58.96;100502.19;5010938;28;100836;-84
2022/06/10 05:24:42;;;;;;;14.90;13.68;;;;;;;21.08;59.06;100520.47;4995629;28;101027;-83
2022/06/10 05:27:08;;;;;;;15.18;13.90;;;;;;;21.14;58.73;100516.47;5010228;28;96800;-81
2022/06/10 05:29:34;;;;;;;14.27;13.30;;;;;;;21.24;58.71;100514.84;5025624;28;96870;-84
2022/06/10 05:31:59;;;;;;;13.57;12.68;;;;;;;21.23;58.34;100507.78;5009735;28;99248;-82
2022/06/10 05:37:09;;;;;;;13.75;12.75;;;;;;;21.43;57.79;100525.00;5014876;28;97107;-81
2022/06/10 05:39:34;;;;;;;14.73;13.52;;;;;;;21.41;57.99;100537.59;4996744;28;96896;-81
2022/06/10 05:42:06;;;;;;;13.90;12.90;;;;;;;21.52;57.96;100544.81;4995143;28;100854;-81
2022/06/10 05:44:37;;;;;;;12.82;11.82;;;;;;;21.63;57.38;100540.34;5012299;28;101027;-83
2022/06/10 05:47:06;;;;;;;13.65;12.70;;;;;;;21.72;56.93;100544.13;5012806;28;97200;-79
2022/06/10 05:49:33;;;;;;;14.35;13.45;;;;;;;21.78;56.57;100526.78;5025525;28;97173;-81
2022/06/10 05:51:59;;;;;;;14.55;13.18;;;;;;;21.99;56.37;100550.97;5028016;28;97623;-80
2022/06/10 05:54:24;;;;;;;13.82;12.73;;;;;;;21.98;56.19;100543.91;4994331;28;101590;-80
2022/06/10 05:56:50;;;;;;;14.27;13.18;;;;;;;22.02;56.04;100546.25;5028285;28;97324;-81
2022/06/10 05:59:15;;;;;;;13.93;12.93;;;;;;;22.07;55.80;100548.53;5007256;28;97261;-80
2022/06/10 06:01:41;;;;;;;13.90;12.90;;;;;;;22.09;55.68;100551.94;5016059;28;97621;-81
2022/06/10 06:04:07;;;;;;;14.02;13.05;;;;;;;22.15;55.60;100559.50;5000601;28;97294;-80
2022/06/10 06:06:32;;;;;;;13.98;12.95;;;;;;;22.15;55.53;100562.16;5000294;28;97101;-81
2022/06/10 06:08:58;;;;;;;15.02;13.95;;;;;;;22.18;55.75;100558.44;5010000;28;96937;-81
2022/06/10 06:11:24;;;;;;;15.00;13.73;;;;;;;22.25;55.35;100565.84;5009387;28;100132;-80
2022/06/10 06:13:49;;;;;;;13.45;12.65;;;;;;;22.37;54.97;100564.03;5007310;28;97868;-81
2022/06/10 06:16:17;;;;;;;15.07;13.57;;;;;;;22.46;54.71;100565.97;5015071;28;97250;-81
2022/06/10 06:18:42;;;;;;;13.30;12.60;;;;;;;22.45;54.49;100564.25;5011021;28;96982;-81
2022/06/10 06:21:08;;;;;;;13.95;13.00;;;;;;;22.65;54.06;100575.19;4993812;28;99476;-80
2022/06/10 06:23:34;;;;;;;13.93;13.02;;;;;;;22.52;53.57;100559.28;5008124;28;101153;-81
2022/06/10 06:25:59;;;;;;;13.80;12.73;;;;;;;22.79;53.36;100580.25;5001538;28;97128;-80
2022/06/10 06:28:27;;;;;;;14.30;13.27;;;;;;;22.84;53.10;100583.44;5009633;28;96904;-81
2022/06/10 06:30:52;;;;;;;13.95;12.98;;;;;;;22.86;53.20;100578.78;5000780;28;98318;-80
2022/06/10 06:33:19;;;;;;;13.95;13.05;;;;;;;22.97;52.91;100589.50;5005584;28;101760;-81
2022/06/10 06:35:49;;;;;;;13.70;12.90;;;;;;;23.23;52.57;100589.19;5018295;28;97478;-81
2022/06/10 06:38:14;;;;;;;14.15;13.15;;;;;;;23.69;51.66;100591.53;4999451;28;97152;-81
2022/06/10 06:40:42;;;;;;;14.32;13.40;;;;;;;23.97;51.21;100601.75;5014015;28;100647;-81
2022/06/10 06:43:08;;;;;;;13.80;13.00;;;;;;;24.59;49.73;100592.78;5011566;28;101210;-81
2022/06/10 06:45:35;;;;;;;14.30;13.07;;;;;;;25.69;46.64;100589.97;5015680;28;97591;-82
2022/06/10 06:48:04;;;;;;;13.73;12.82;;;;;;;25.60;47.08;100612.28;4994811;28;96983;-82
2022/06/10 06:50:32;;;;;;;13.98;13.00;;;;;;;25.80;46.47;100600.53;5026084;28;97426;-82
2022/06/10 06:52:57;;;;;;;14.23;13.18;;;;;;;27.09;43.82;100607.03;5027097;28;97410;-81
2022/06/10 06:55:23;;;;;;;15.85;14.75;;;;;;;26.57;45.04;100620.22;5017866;28;96786;-81
2022/06/10 06:57:49;;;;;;;14.88;13.80;;;;;;;26.20;45.66;100631.78;5016480;28;97260;-81
2022/06/10 07:00:16;;;;;;;15.57;13.85;;;;;;;26.21;45.56;100625.41;5016248;28;101177;-82
2022/06/10 07:02:42;;;;;;;14.20;13.35;;;;;;;25.78;46.40;100628.59;5014876;28;101384;-80
2022/06/10 07:05:08;;;;;;;13.98;13.05;;;;;;;25.96;46.56;100627.72;5017790;28;96838;-82
2022/06/10 07:07:34;;;;;;;14.40;13.50;;;;;;;25.71;46.64;100625.59;5017754;28;97143;-82
2022/06/10 07:09:59;;;;;;;14.13;13.32;;;;;;;25.79;46.57;100633.78;5012412;28;98569;-80
2022/06/10 07:12:26;;;;;;;13.82;12.90;;;;;;;25.90;46.75;100636.38;5030814;28;97590;-81
2022/06/10 07:14:51;;;;;;;13.90;12.93;;;;;;;26.34;45.28;100634.00;5000526;28;97466;-82
2022/06/10 07:17:17;;;;;;;14.70;13.50;;;;;;;27.30;43.46;100621.06;5006227;28;97660;-81
2022/06/10 07:19:43;;;;;;;13.55;12.60;;;;;;;28.80;41.51;100626.38;5012896;28;101283;-80
2022/06/10 07:22:09;;;;;;;31.88;28.73;;;;;;;28.65;41.25;100619.88;5014096;28;101302;-79
2022/06/10 07:24:34;;;;;;;25.42;23.13;;;;;;;29.33;39.46;100622.47;5000297;28;96873;-79
2022/06/10 07:27:00;;;;;;;18.23;16.88;;;;;;;30.14;37.39;100628.09;5020920;28;97061;-82
2022/06/10 07:29:29;;;;;;;16.23;14.75;;;;;;;30.03;38.15;100612.19;5000437;28;100944;-81
2022/06/10 07:31:54;;;;;;;15.68;14.00;;;;;;;29.46;39.15;100626.53;5012600;28;101392;-80
2022/06/10 07:34:21;;;;;;;14.07;13.05;;;;;;;28.92;39.65;100613.41;5032020;28;96952;-79
2022/06/10 07:36:47;;;;;;;12.45;11.65;;;;;;;27.28;42.52;100622.22;5032188;27;97326;-80
2022/06/10 07:39:13;;;;;;;14.30;13.35;;;;;;;26.84;43.18;100643.59;5016337;28;97362;-76
2022/06/10 07:41:56;;;;;;;13.95;12.93;;;;;;;26.74;43.35;100629.34;5010087;28;97660;-79
2022/06/10 07:44:25;;;;;;;13.80;12.98;;;;;;;28.65;40.46;100631.56;5011505;28;96963;-78
2022/06/10 07:46:53;;;;;;;13.60;12.73;;;;;;;30.57;36.98;100615.94;5018049;28;97212;-78
2022/06/10 07:49:19;;;;;;;13.07;12.38;;;;;;;30.42;36.95;100634.78;5008807;28;101366;-77
2022/06/10 07:51:46;;;;;;;13.27;12.38;;;;;;;31.18;36.13;100626.19;5006005;28;101288;-78
2022/06/10 07:54:12;;;;;;;14.65;13.45;;;;;;;29.48;37.96;100609.13;4995786;28;97263;-77
2022/06/10 07:56:39;;;;;;;15.70;14.10;;;;;;;28.34;38.55;100619.56;4999878;28;97307;-79
2022/06/10 07:59:06;;;;;;;12.55;11.65;;;;;;;27.83;38.71;100640.94;5015273;28;101257;-76
2022/06/10 08:01:32;;;;;;;13.18;12.13;;;;;;;26.98;39.70;100637.69;4995817;28;101172;-80
2022/06/10 08:03:57;;;;;;;12.15;11.45;;;;;;;27.15;39.59;100633.38;4992678;28;96936;-77
2022/06/10 08:06:25;;;;;;;12.73;11.82;;;;;;;27.05;39.80;100632.56;5012984;28;97288;-79
2022/06/10 08:08:51;;;;;;;12.02;11.30;;;;;;;26.76;40.07;100640.78;5009669;28;101216;-76
2022/06/10 08:11:19;;;;;;;13.13;12.23;;;;;;;26.90;40.04;100640.28;4997921;28;101374;-77
2022/06/10 08:13:45;;;;;;;13.20;12.18;;;;;;;26.92;40.66;100653.63;4997154;28;96772;-78
2022/06/10 08:16:10;;;;;;;12.80;11.80;;;;;;;26.73;40.70;100647.31;5012149;28;97357;-75
2022/06/10 08:18:37;;;;;;;12.88;11.98;;;;;;;27.31;40.23;100648.84;5014198;28;101401;-76
2022/06/10 08:23:48;;;;;;;12.75;11.95;;;;;;;27.79;38.74;100642.28;5030649;28;97429;-78
2022/06/10 08:26:15;;;;;;;12.98;11.88;;;;;;;28.54;37.88;100639.94;4989484;28;96931;-78
2022/06/10 08:28:43;;;;;;;13.27;12.38;;;;;;;29.55;36.42;100645.34;5021716;28;100917;-78
2022/06/10 08:31:09;;;;;;;13.13;12.32;;;;;;;29.93;35.65;100639.41;5024881;28;97903;-81
2022/06/10 08:33:35;;;;;;;13.25;12.48;;;;;;;30.54;34.87;100654.22;5015249;28;97218;-81
2022/06/10 08:36:01;;;;;;;12.63;11.93;;;;;;;30.96;34.04;100636.81;5015948;28;97502;-80
2022/06/10 08:38:27;;;;;;;13.23;12.05;;;;;;;31.22;33.37;100641.06;5026131;28;98088;-81
2022/06/10 08:40:56;;;;;;;13.02;12.23;;;;;;;30.91;33.92;100628.38;4998171;28;101198;-81
2022/06/10 08:44:10;;;;;;;13.43;12.52;;;;;;;31.25;33.53;100644.28;5034367;28;96859;-82
2022/06/10 08:47:13;;;;;;;12.55;11.80;;;;;;;30.81;34.22;100641.31;4938373;28;97689;-81
2022/06/10 08:50:00;;;;;;;12.32;11.57;;;;;;;30.66;34.07;100657.38;5020568;27;101821;-82
2022/06/10 08:52:50;;;;;;;12.68;11.98;;;;;;;30.21;34.77;100662.41;5031581;28;97898;-81
2022/06/10 08:55:15;;;;;;;;;;;;;;;29.30;36.05;100663.38;5006311;28;97077;-81
2022/06/10 08:57:44;;;;;;;12.88;12.00;;;;;;;29.60;35.80;100647.50;5013609;28;97276;-85
2022/06/10 09:00:30;;;;;;;12.60;11.63;;;;;;;30.19;34.92;100671.69;5029253;28;97531;-80
2022/06/10 09:02:59;;;;;;;12.77;11.98;;;;;;;29.94;34.87;100660.91;5024414;28;101538;-83
2022/06/10 09:05:28;;;;;;;13.30;12.32;;;;;;;29.50;35.57;100663.91;5023432;28;97127;-83
2022/06/10 09:08:00;;;;;;;13.30;12.50;;;;;;;29.21;36.18;100668.94;4997341;28;97082;-81
2022/06/10 09:10:47;;;;;;;13.85;12.57;;;;;;;29.42;35.95;100665.75;4989678;28;101192;-84
2022/06/10 09:13:25;;;;;;;13.38;12.57;;;;;;;29.32;35.41;100652.38;5007844;28;101464;-83
2022/06/10 09:15:53;;;;;;;13.38;12.45;;;;;;;29.33;35.52;100660.31;5026105;28;96897;-82
2022/06/10 09:18:49;;;;;;;13.63;12.68;;;;;;;29.54;35.34;100670.66;5008028;28;97221;-82
2022/06/10 09:21:23;;;;;;;13.48;12.55;;;;;;;29.60;35.22;100668.31;5024332;28;101317;-82
2022/06/10 09:23:49;;;;;;;13.65;12.55;;;;;;;29.53;35.77;100677.09;5026906;28;97599;-81
2022/06/10 09:26:35;;;;;;;13.13;12.23;;;;;;;29.55;35.90;100669.66;5010282;28;97412;-82
2022/06/10 09:29:01;;;;;;;14.10;13.02;;;;;;;29.40;36.18;100665.06;5014711;28;97660;-83
2022/06/10 09:31:37;;;;;;;14.00;12.80;;;;;;;29.29;36.73;100674.31;5011070;28;100188;-82
2022/06/10 09:34:21;;;;;;;14.38;12.75;;;;;;;28.96;37.23;100676.06;5011207;28;98419;-82
2022/06/10 09:37:02;;;;;;;13.55;12.60;;;;;;;28.79;37.10;100677.84;5014704;27;97199;-83
2022/06/10 09:43:10;;;;;;;13.95;12.77;;;;;;;28.98;36.03;100668.66;5027335;28;98151;-83
2022/06/10 09:45:51;;;;;;;13.60;12.50;;;;;;;28.95;36.24;100648.22;5026984;28;101516;-82
2022/06/10 09:48:37;;;;;;;13.82;12.77;;;;;;;28.94;36.02;100665.41;5032915;28;97278;-82
2022/06/10 09:51:16;;;;;;;12.85;12.05;;;;;;;28.91;36.26;100671.13;5024405;28;97043;-82
2022/06/10 09:53:50;;;;;;;13.25;12.13;;;;;;;29.05;36.39;100667.84;4992635;28;101020;-85
2022/06/10 09:56:38;;;;;;;13.85;13.05;;;;;;;28.29;37.38;100665.91;5031610;28;97954;-82
2022/06/10 09:59:12;;;;;;;13.95;12.88;;;;;;;28.13;37.57;100646.88;5030960;28;97108;-83
2022/06/10 10:01:58;;;;;;;13.70;12.75;;;;;;;28.12;37.22;100662.25;5026882;28;98062;-78
2022/06/10 10:04:46;;;;;;;13.30;11.95;;;;;;;27.86;37.45;100661.38;5010882;28;101867;-82
2022/06/10 10:07:25;;;;;;;13.25;12.30;;;;;;;28.07;37.07;100667.28;4996291;28;100905;-82
2022/06/10 10:10:18;;;;;;;13.73;12.65;;;;;;;27.76;37.29;100674.91;5007614;28;97298;-82
2022/06/10 10:12:51;;;;;;;13.77;12.88;;;;;;;27.78;37.36;100659.44;5013775;28;96965;-82
2022/06/10 10:15:30;;;;;;;13.48;12.68;;;;;;;27.51;37.49;100658.50;5014277;28;101724;-79
2022/06/10 10:18:32;;;;;;;14.27;13.10;;;;;;;27.57;37.96;100658.88;4994144;28;101230;-78
2022/06/10 10:21:05;;;;;;;12.90;11.98;;;;;;;27.14;38.42;100664.00;5016172;28;97012;-79
2022/06/10 10:23:34;;;;;;;14.38;13.25;;;;;;;27.04;38.64;100660.50;4994006;28;96908;-78
2022/06/10 10:26:08;;;;;;;14.87;13.50;;;;;;;27.44;38.19;100660.13;4999656;28;98040;-79
2022/06/10 10:28:37;;;;;;;13.82;12.82;;;;;;;27.20;38.65;100671.50;5014463;28;98102;-79
2022/06/10 10:31:15;;;;;;;13.63;12.52;;;;;;;26.86;38.31;100647.00;5018462;28;97091;-82
2022/06/10 10:33:41;;;;;;;13.68;12.88;;;;;;;26.74;38.79;100659.81;5012366;28;97871;-84
2022/06/10 10:36:27;;;;;;;14.05;12.98;;;;;;;26.83;39.10;100658.91;4997614;28;100490;-83
2022/06/10 10:38:53;;;;;;;14.55;13.60;;;;;;;26.69;39.42;100667.47;4991569;28;101816;-81
2022/06/10 10:41:21;;;;;;;13.18;12.35;;;;;;;26.93;38.83;100666.09;4998261;28;97313;-81
2022/06/10 10:43:50;;;;;;;14.77;13.55;;;;;;;26.73;39.29;100652.72;5021096;28;96952;-83
2022/06/10 10:46:21;;;;;;;14.52;13.10;;;;;;;26.60;39.65;100663.81;5008537;28;97609;-81
2022/06/10 10:48:47;;;;;;;13.65;12.85;;;;;;;26.73;39.22;100662.63;4994104;28;101083;-82
2022/06/10 10:51:12;;;;;;;13.25;12.43;;;;;;;26.60;39.75;100669.22;5011932;28;96897;-81
2022/06/10 10:53:41;;;;;;;14.18;13.27;;;;;;;26.37;39.94;100643.63;5019686;28;97422;-82
2022/06/10 10:56:08;;;;;;;14.05;12.68;;;;;;;26.10;39.42;100612.97;5002409;28;97974;-82
2022/06/10 10:58:37;;;;;;;13.80;12.90;;;;;;;26.31;39.29;100661.19;5013538;28;101483;-82
2022/06/10 11:01:09;;;;;;;14.40;13.27;;;;;;;26.13;39.74;100652.19;5007670;28;96812;-82
2022/06/10 11:03:51;;;;;;;12.90;12.10;;;;;;;26.02;39.20;100663.09;5021974;28;97047;-83
2022/06/10 11:06:32;;;;;;;13.57;12.77;;;;;;;26.05;39.04;100652.91;5005244;28;101718;-82
2022/06/10 11:09:19;;;;;;;13.48;12.68;;;;;;;26.06;39.01;100668.03;5000570;28;101925;-82
2022/06/10 11:11:45;;;;;;;13.05;12.25;;;;;;;25.89;38.70;100637.38;5011505;28;96839;-83
2022/06/10 11:14:35;;;;;;;13.75;12.82;;;;;;;26.00;38.99;100635.50;5007763;28;97168;-82
2022/06/10 11:17:11;;;;;;;13.38;12.38;;;;;;;25.93;39.01;100657.59;4992989;28;101340;-82
2022/06/10 11:19:37;;;;;;;13.30;12.48;;;;;;;26.00;38.90;100665.09;5013696;28;101068;-82
2022/06/10 11:22:02;;;;;;;12.90;12.05;;;;;;;25.99;38.95;100661.56;4999172;28;97084;-82
2022/06/10 11:24:32;;;;;;;13.15;12.40;;;;;;;25.88;38.83;100662.53;5013110;28;98122;-82
2022/06/10 11:27:00;;;;;;;13.93;12.87;;;;;;;25.71;38.37;100660.53;4999560;28;101128;-82
2022/06/10 11:29:28;;;;;;;13.68;12.68;;;;;;;25.53;38.03;100633.53;5015313;28;97325;-82
2022/06/10 11:32:04;;;;;;;15.00;13.98;;;;;;;25.67;38.20;100656.44;5016904;28;97052;-82
2022/06/10 11:34:38;;;;;;;14.00;13.15;;;;;;;25.91;38.54;100656.03;5003611;28;97004;-82
2022/06/10 11:37:36;;;;;;;13.20;12.43;;;;;;;25.72;38.59;100630.00;5013715;28;101330;-82
2022/06/10 11:40:05;;;;;;;14.05;12.88;;;;;;;25.80;38.57;100650.78;5012991;28;101582;-82
2022/06/10 11:42:39;;;;;;;13.57;12.52;;;;;;;25.87;37.24;100649.25;5016250;28;96868;-83